sensor_id;sensor_type;location;lat;lon;timestamp;pressure;altitude;pressure_sealevel;temperature;humidity
59274;BME280;45044;41.572;24.730;2023-05-22T00:01:54;91055.97;;;11.57;100.00
59274;BME280;45044;41.572;24.730;2023-05-22T00:04:22;91059.72;;;11.53;100.00
59274;BME280;45044;41.572;24.730;2023-05-22T00:06:49;91064.41;;;11.23;100.00
59274;BME280;45044;41.572;24.730;2023-05-22T00:09:16;91048.69;;;11.08;100.00
59274;BME280;45044;41.572;24.730;2023-05-22T00:11:43;91056.19;;;11.10;100.00
59274;BME280;45044;41.572;24.730;2023-05-22T00:14:09;91059.59;;;11.03;100.00
59274;BME280;45044;41.572;24.730;2023-05-22T00:16:38;91054.00;;;10.94;100.00
59274;BME280;45044;41.572;24.730;2023-05-22T00:19:05;91041.97;;;10.93;100.00
59274;BME280;45044;41.572;24.730;2023-05-22T00:21:39;91046.84;;;10.94;100.00
59274;BME280;45044;41.572;24.730;2023-05-22T00:24:05;91039.72;;;10.87;100.00
59274;BME280;45044;41.572;24.730;2023-05-22T00:26:32;91053.97;;;11.01;100.00
59274;BME280;45044;41.572;24.730;2023-05-22T00:28:59;91053.56;;;11.10;100.00
59274;BME280;45044;41.572;24.730;2023-05-22T00:31:26;91059.91;;;11.12;100.00
59274;BME280;45044;41.572;24.730;2023-05-22T00:33:52;91052.34;;;11.25;100.00
59274;BME280;45044;41.572;24.730;2023-05-22T00:36:19;91049.97;;;11.53;100.00
59274;BME280;45044;41.572;24.730;2023-05-22T00:38:50;91043.97;;;11.49;100.00
59274;BME280;45044;41.572;24.730;2023-05-22T00:41:17;91038.72;;;11.42;100.00
59274;BME280;45044;41.572;24.730;2023-05-22T00:43:44;91048.47;;;11.56;100.00
59274;BME280;45044;41.572;24.730;2023-05-22T00:46:11;91048.84;;;11.50;100.00
59274;BME280;45044;41.572;24.730;2023-05-22T00:48:38;91045.44;;;11.57;100.00
59274;BME280;45044;41.572;24.730;2023-05-22T00:51:05;91051.38;;;11.65;100.00
59274;BME280;45044;41.572;24.730;2023-05-22T00:53:33;91051.38;;;11.65;100.00
59274;BME280;45044;41.572;24.730;2023-05-22T00:56:00;91048.34;;;11.74;100.00
59274;BME280;45044;41.572;24.730;2023-05-22T00:58:27;91046.06;;;11.76;100.00
59274;BME280;45044;41.572;24.730;2023-05-22T01:00:55;91040.84;;;11.69;100.00
59274;BME280;45044;41.572;24.730;2023-05-22T01:03:22;91038.19;;;11.72;100.00
59274;BME280;45044;41.572;24.730;2023-05-22T01:05:53;91045.34;;;11.72;100.00
59274;BME280;45044;41.572;24.730;2023-05-22T01:08:20;91036.69;;;11.71;100.00
59274;BME280;45044;41.572;24.730;2023-05-22T01:10:55;91025.72;;;11.80;100.00
59274;BME280;45044;41.572;24.730;2023-05-22T01:13:36;91031.41;;;11.75;100.00
59274;BME280;45044;41.572;24.730;2023-05-22T01:16:15;91029.53;;;11.76;100.00
59274;BME280;45044;41.572;24.730;2023-05-22T01:19:20;91023.22;;;11.58;100.00
59274;BME280;45044;41.572;24.730;2023-05-22T01:28:00;91016.56;;;11.43;100.00
59274;BME280;45044;41.572;24.730;2023-05-22T01:30:46;91013.97;;;11.35;100.00
59274;BME280;45044;41.572;24.730;2023-05-22T01:33:15;91022.94;;;11.42;100.00
59274;BME280;45044;41.572;24.730;2023-05-22T01:35:45;91023.25;;;11.55;100.00
59274;BME280;45044;41.572;24.730;2023-05-22T01:38:14;91016.94;;;11.41;100.00
59274;BME280;45044;41.572;24.730;2023-05-22T01:40:43;91022.56;;;11.43;100.00
59274;BME280;45044;41.572;24.730;2023-05-22T01:43:12;91017.22;;;11.58;100.00
59274;BME280;45044;41.572;24.730;2023-05-22T01:45:39;91024.78;;;11.52;100.00
59274;BME280;45044;41.572;24.730;2023-05-22T01:48:06;91012.75;;;11.51;100.00
59274;BME280;45044;41.572;24.730;2023-05-22T01:50:33;91022.44;;;11.61;100.00
59274;BME280;45044;41.572;24.730;2023-05-22T01:55:49;91016.84;;;11.59;100.00
59274;BME280;45044;41.572;24.730;2023-05-22T01:58:40;91019.03;;;11.68;100.00
59274;BME280;45044;41.572;24.730;2023-05-22T02:01:11;91016.78;;;11.70;100.00
59274;BME280;45044;41.572;24.730;2023-05-22T02:03:40;91013.75;;;11.72;100.00
59274;BME280;45044;41.572;24.730;2023-05-22T02:06:09;91016.75;;;11.74;100.00
59274;BME280;45044;41.572;24.730;2023-05-22T02:08:40;91008.47;;;11.72;100.00
59274;BME280;45044;41.572;24.730;2023-05-22T02:11:09;91016.75;;;11.74;100.00
59274;BME280;45044;41.572;24.730;2023-05-22T02:13:36;91015.19;;;11.80;100.00
59274;BME280;45044;41.572;24.730;2023-05-22T02:16:04;91023.03;;;11.88;100.00
59274;BME280;45044;41.572;24.730;2023-05-22T02:18:31;91016.56;;;11.96;100.00
59274;BME280;45044;41.572;24.730;2023-05-22T02:20:59;91009.09;;;11.87;100.00
59274;BME280;45044;41.572;24.730;2023-05-22T02:23:26;91015.06;;;11.95;100.00
59274;BME280;45044;41.572;24.730;2023-05-22T02:25:55;91015.44;;;11.97;100.00
59274;BME280;45044;41.572;24.730;2023-05-22T02:28:22;91003.75;;;11.98;100.00
59274;BME280;45044;41.572;24.730;2023-05-22T02:30:49;91015.00;;;12.06;100.00
59274;BME280;45044;41.572;24.730;2023-05-22T02:33:16;91017.66;;;12.02;100.00
59274;BME280;45044;41.572;24.730;2023-05-22T02:35:44;91019.47;;;12.09;100.00
59274;BME280;45044;41.572;24.730;2023-05-22T02:38:11;91020.69;;;12.01;100.00
59274;BME280;45044;41.572;24.730;2023-05-22T02:40:38;91025.13;;;12.07;100.00
59274;BME280;45044;41.572;24.730;2023-05-22T02:43:05;91023.34;;;11.97;100.00
59274;BME280;45044;41.572;24.730;2023-05-22T02:45:32;91024.75;;;12.09;100.00
59274;BME280;45044;41.572;24.730;2023-05-22T02:47:59;91029.34;;;12.01;100.00
59274;BME280;45044;41.572;24.730;2023-05-22T02:50:29;91034.63;;;12.01;100.00
59274;BME280;45044;41.572;24.730;2023-05-22T02:52:55;91036.47;;;12.04;100.00
59274;BME280;45044;41.572;24.730;2023-05-22T02:55:22;91030.88;;;11.95;100.00
59274;BME280;45044;41.572;24.730;2023-05-22T02:57:49;91027.81;;;12.00;100.00
59274;BME280;45044;41.572;24.730;2023-05-22T03:00:16;91033.81;;;12.04;100.00
59274;BME280;45044;41.572;24.730;2023-05-22T03:02:43;91032.72;;;11.98;100.00
59274;BME280;45044;41.572;24.730;2023-05-22T03:05:10;91027.47;;;11.98;100.00
59274;BME280;45044;41.572;24.730;2023-05-22T03:07:36;91025.91;;;12.04;100.00
59274;BME280;45044;41.572;24.730;2023-05-22T03:10:03;91024.16;;;11.90;100.00
59274;BME280;45044;41.572;24.730;2023-05-22T03:12:30;91028.63;;;11.97;100.00
59274;BME280;45044;41.572;24.730;2023-05-22T03:14:57;91025.59;;;11.98;100.00
59274;BME280;45044;41.572;24.730;2023-05-22T03:17:25;91027.38;;;12.09;100.00
59274;BME280;45044;41.572;24.730;2023-05-22T03:19:52;91029.41;;;11.94;100.00
59274;BME280;45044;41.572;24.730;2023-05-22T03:22:19;91035.31;;;12.05;100.00
59274;BME280;45044;41.572;24.730;2023-05-22T03:24:46;91025.13;;;12.07;100.00
59274;BME280;45044;41.572;24.730;2023-05-22T03:27:14;91025.53;;;12.09;100.00
59274;BME280;45044;41.572;24.730;2023-05-22T03:29:42;91024.75;;;12.09;100.00
59274;BME280;45044;41.572;24.730;2023-05-22T03:32:09;91027.75;;;12.15;100.00
59274;BME280;45044;41.572;24.730;2023-05-22T03:34:36;91031.19;;;12.04;100.00
59274;BME280;45044;41.572;24.730;2023-05-22T03:37:02;91031.56;;;12.10;100.00
59274;BME280;45044;41.572;24.730;2023-05-22T03:39:29;91030.31;;;12.22;100.00
59274;BME280;45044;41.572;24.730;2023-05-22T03:41:56;91024.00;;;12.08;100.00
59274;BME280;45044;41.572;24.730;2023-05-22T03:44:23;91027.41;;;12.05;100.00
59274;BME280;45044;41.572;24.730;2023-05-22T03:46:50;91031.63;;;11.99;100.00
59274;BME280;45044;41.572;24.730;2023-05-22T03:49:16;91029.69;;;12.00;100.00
59274;BME280;45044;41.572;24.730;2023-05-22T03:51:43;91021.09;;;11.95;100.00
59274;BME280;45044;41.572;24.730;2023-05-22T03:54:10;91032.41;;;11.89;100.00
59274;BME280;45044;41.572;24.730;2023-05-22T03:56:37;91028.97;;;11.99;100.00
59274;BME280;45044;41.572;24.730;2023-05-22T03:59:06;91031.22;;;12.01;100.00
59274;BME280;45044;41.572;24.730;2023-05-22T04:01:32;91035.69;;;12.11;100.00
59274;BME280;45044;41.572;24.730;2023-05-22T04:03:59;91045.03;;;12.19;100.00
59274;BME280;45044;41.572;24.730;2023-05-22T04:06:26;91039.25;;;12.36;100.00
59274;BME280;45044;41.572;24.730;2023-05-22T04:08:53;91041.09;;;12.39;100.00
59274;BME280;45044;41.572;24.730;2023-05-22T04:11:19;91040.00;;;12.32;100.00
59274;BME280;45044;41.572;24.730;2023-05-22T04:13:48;91044.22;;;12.26;100.00
59274;BME280;45044;41.572;24.730;2023-05-22T04:16:15;91044.91;;;12.30;100.00
59274;BME280;45044;41.572;24.730;2023-05-22T04:18:43;91029.75;;;12.42;100.00
59274;BME280;45044;41.572;24.730;2023-05-22T04:21:10;91031.13;;;12.57;100.00
59274;BME280;45044;41.572;24.730;2023-05-22T04:23:38;91036.31;;;12.68;100.00
59274;BME280;45044;41.572;24.730;2023-05-22T04:26:08;91035.41;;;12.82;100.00
59274;BME280;45044;41.572;24.730;2023-05-22T04:28:35;91035.31;;;12.90;100.00
59274;BME280;45044;41.572;24.730;2023-05-22T04:31:03;91041.28;;;12.94;100.00
59274;BME280;45044;41.572;24.730;2023-05-22T04:33:32;91041.53;;;12.72;100.00
59274;BME280;45044;41.572;24.730;2023-05-22T04:36:00;91043.03;;;12.73;100.00
59274;BME280;45044;41.572;24.730;2023-05-22T04:38:27;91043.84;;;12.66;100.00
59274;BME280;45044;41.572;24.730;2023-05-22T04:40:55;91053.97;;;12.72;100.00
59274;BME280;45044;41.572;24.730;2023-05-22T04:43:22;91058.50;;;12.71;100.00
59274;BME280;45044;41.572;24.730;2023-05-22T04:45:52;91054.34;;;12.74;100.00
59274;BME280;45044;41.572;24.730;2023-05-22T04:48:20;91049.56;;;12.61;100.00
59274;BME280;45044;41.572;24.730;2023-05-22T04:50:50;91046.84;;;12.68;100.00
59274;BME280;45044;41.572;24.730;2023-05-22T04:53:20;91057.16;;;12.90;100.00
59274;BME280;45044;41.572;24.730;2023-05-22T04:55:46;91038.34;;;12.88;100.00
59274;BME280;45044;41.572;24.730;2023-05-22T04:58:13;91047.31;;;12.94;100.00
59274;BME280;45044;41.572;24.730;2023-05-22T05:00:40;91054.28;;;13.12;100.00
59274;BME280;45044;41.572;24.730;2023-05-22T05:03:07;91059.91;;;13.14;100.00
59274;BME280;45044;41.572;24.730;2023-05-22T05:05:37;91057.50;;;13.27;100.00
59274;BME280;45044;41.572;24.730;2023-05-22T05:08:04;91063.22;;;13.22;100.00
59274;BME280;45044;41.572;24.730;2023-05-22T05:10:31;91059.25;;;13.07;100.00
59274;BME280;45044;41.572;24.730;2023-05-22T05:12:58;91058.75;;;13.19;100.00
59274;BME280;45044;41.572;24.730;2023-05-22T05:15:24;91064.38;;;13.21;100.00
59274;BME280;45044;41.572;24.730;2023-05-22T05:17:52;91057.50;;;13.27;100.00
59274;BME280;45044;41.572;24.730;2023-05-22T05:20:19;91066.63;;;13.23;100.00
59274;BME280;45044;41.572;24.730;2023-05-22T05:22:46;91056.38;;;13.28;100.00
59274;BME280;45044;41.572;24.730;2023-05-22T05:25:13;91061.19;;;13.02;100.00
59274;BME280;45044;41.572;24.730;2023-05-22T05:27:40;91067.22;;;13.03;100.00
59274;BME280;45044;41.572;24.730;2023-05-22T05:30:07;91065.75;;;12.98;100.00
59274;BME280;45044;41.572;24.730;2023-05-22T05:32:34;91061.91;;;13.38;100.00
59274;BME280;45044;41.572;24.730;2023-05-22T05:35:01;91060.22;;;13.83;100.00
59274;BME280;45044;41.572;24.730;2023-05-22T05:37:28;91069.94;;;14.41;100.00
59274;BME280;45044;41.572;24.730;2023-05-22T05:39:55;91069.56;;;14.39;100.00
59274;BME280;45044;41.572;24.730;2023-05-22T05:42:21;91065.78;;;14.40;100.00
59274;BME280;45044;41.572;24.730;2023-05-22T05:44:48;91073.34;;;14.38;100.00
59274;BME280;45044;41.572;24.730;2023-05-22T05:47:17;91066.44;;;13.96;100.00
59274;BME280;45044;41.572;24.730;2023-05-22T05:49:44;91064.84;;;13.75;100.00
59274;BME280;45044;41.572;24.730;2023-05-22T05:52:10;91064.50;;;14.00;100.00
59274;BME280;45044;41.572;24.730;2023-05-22T05:54:37;91066.28;;;13.80;100.00
59274;BME280;45044;41.572;24.730;2023-05-22T05:57:05;91063.50;;;13.63;100.00
59274;BME280;45044;41.572;24.730;2023-05-22T05:59:31;91068.25;;;13.44;100.00
59274;BME280;45044;41.572;24.730;2023-05-22T06:01:58;91073.25;;;13.35;100.00
59274;BME280;45044;41.572;24.730;2023-05-22T06:04:25;91056.28;;;13.36;100.00
59274;BME280;45044;41.572;24.730;2023-05-22T06:06:53;91057.50;;;13.27;100.00
59274;BME280;45044;41.572;24.730;2023-05-22T06:09:20;91076.59;;;13.39;100.00
59274;BME280;45044;41.572;24.730;2023-05-22T06:11:47;91081.88;;;13.39;100.00
59274;BME280;45044;41.572;24.730;2023-05-22T06:14:14;91080.72;;;13.40;100.00
59274;BME280;45044;41.572;24.730;2023-05-22T06:16:41;91095.97;;;13.28;100.00
59274;BME280;45044;41.572;24.730;2023-05-22T06:19:08;91092.28;;;13.18;100.00
59274;BME280;45044;41.572;24.730;2023-05-22T06:21:34;91095.38;;;13.13;100.00
59274;BME280;45044;41.572;24.730;2023-05-22T06:24:01;91103.09;;;13.32;100.00
59274;BME280;45044;41.572;24.730;2023-05-22T06:26:29;91108.28;;;13.39;100.00
59274;BME280;45044;41.572;24.730;2023-05-22T06:28:56;91108.66;;;13.41;100.00
59274;BME280;45044;41.572;24.730;2023-05-22T06:31:23;91111.91;;;13.17;100.00
59274;BME280;45044;41.572;24.730;2023-05-22T06:33:50;91113.53;;;13.08;100.00
59274;BME280;45044;41.572;24.730;2023-05-22T06:36:17;91115.03;;;12.70;100.00
59274;BME280;45044;41.572;24.730;2023-05-22T06:38:44;91115.31;;;12.79;100.00
59274;BME280;45044;41.572;24.730;2023-05-22T06:41:15;91110.75;;;12.84;100.00
59274;BME280;45044;41.572;24.730;2023-05-22T06:43:41;91121.28;;;12.84;100.00
59274;BME280;45044;41.572;24.730;2023-05-22T06:46:08;91113.41;;;12.80;100.00
59274;BME280;45044;41.572;24.730;2023-05-22T06:48:35;91110.31;;;12.89;100.00
59274;BME280;45044;41.572;24.730;2023-05-22T06:51:02;91108.28;;;13.04;100.00
59274;BME280;45044;41.572;24.730;2023-05-22T06:53:29;91102.34;;;13.31;100.00
59274;BME280;45044;41.572;24.730;2023-05-22T06:55:56;91113.16;;;13.75;100.00
59274;BME280;45044;41.572;24.730;2023-05-22T06:58:23;91105.09;;;14.10;100.00
59274;BME280;45044;41.572;24.730;2023-05-22T07:00:50;91115.50;;;14.49;100.00
59274;BME280;45044;41.572;24.730;2023-05-22T07:03:17;91106.41;;;15.59;100.00
59274;BME280;45044;41.572;24.730;2023-05-22T07:05:44;91104.72;;;16.06;100.00
59274;BME280;45044;41.572;24.730;2023-05-22T07:08:11;91104.38;;;16.04;100.00
59274;BME280;45044;41.572;24.730;2023-05-22T07:10:38;91109.44;;;16.65;100.00
59274;BME280;45044;41.572;24.730;2023-05-22T07:13:05;91107.50;;;16.99;100.00
59274;BME280;45044;41.572;24.730;2023-05-22T07:15:32;91116.13;;;17.33;100.00
59274;BME280;45044;41.572;24.730;2023-05-22T07:17:59;91113.50;;;16.86;100.00
59274;BME280;45044;41.572;24.730;2023-05-22T07:20:26;91112.72;;;17.32;100.00
59274;BME280;45044;41.572;24.730;2023-05-22T07:22:52;91107.63;;;17.94;100.00
59274;BME280;45044;41.572;24.730;2023-05-22T07:25:19;91112.38;;;18.77;100.00
59274;BME280;45044;41.572;24.730;2023-05-22T07:27:46;91105.41;;;18.93;100.00
59274;BME280;45044;41.572;24.730;2023-05-22T07:30:13;91109.44;;;18.49;100.00
59274;BME280;45044;41.572;24.730;2023-05-22T07:32:40;91114.16;;;19.51;92.33
59274;BME280;45044;41.572;24.730;2023-05-22T07:35:07;91115.91;;;21.10;74.78
59274;BME280;45044;41.572;24.730;2023-05-22T07:37:36;91110.25;;;20.89;76.84
59274;BME280;45044;41.572;24.730;2023-05-22T07:40:04;91097.97;;;21.11;71.65
59274;BME280;45044;41.572;24.730;2023-05-22T07:42:35;91097.53;;;21.31;68.05
59274;BME280;45044;41.572;24.730;2023-05-22T07:45:02;91094.47;;;22.29;60.72
59274;BME280;45044;41.572;24.730;2023-05-22T07:47:29;91101.78;;;21.75;66.84
59274;BME280;45044;41.572;24.730;2023-05-22T07:49:56;91101.88;;;20.08;76.96
59274;BME280;45044;41.572;24.730;2023-05-22T07:52:22;91096.91;;;19.97;72.81
59274;BME280;45044;41.572;24.730;2023-05-22T07:54:50;91101.31;;;19.59;77.48
59274;BME280;45044;41.572;24.730;2023-05-22T07:57:17;91105.53;;;19.25;81.51
59274;BME280;45044;41.572;24.730;2023-05-22T07:59:44;91102.81;;;18.67;92.14
59274;BME280;45044;41.572;24.730;2023-05-22T08:02:11;91102.13;;;18.89;86.75
59274;BME280;45044;41.572;24.730;2023-05-22T08:04:38;91095.31;;;19.68;90.97
59274;BME280;45044;41.572;24.730;2023-05-22T08:07:05;91097.38;;;19.19;91.14
59274;BME280;45044;41.572;24.730;2023-05-22T08:09:32;91106.22;;;19.61;80.17
59274;BME280;45044;41.572;24.730;2023-05-22T08:11:59;91102.56;;;19.45;82.79
59274;BME280;45044;41.572;24.730;2023-05-22T08:14:26;91110.72;;;19.06;70.46
59274;BME280;45044;41.572;24.730;2023-05-22T08:16:53;91103.72;;;18.38;85.46
59274;BME280;45044;41.572;24.730;2023-05-22T08:19:20;91108.81;;;18.45;77.16
59274;BME280;45044;41.572;24.730;2023-05-22T08:21:47;91111.03;;;18.07;92.70
59274;BME280;45044;41.572;24.730;2023-05-22T08:24:15;91110.09;;;18.14;93.95
59274;BME280;45044;41.572;24.730;2023-05-22T08:26:42;91122.19;;;17.89;100.00
59274;BME280;45044;41.572;24.730;2023-05-22T08:29:09;91120.50;;;18.08;85.58
59274;BME280;45044;41.572;24.730;2023-05-22T08:31:37;91109.44;;;17.97;89.94
59274;BME280;45044;41.572;24.730;2023-05-22T08:34:03;91107.75;;;17.77;81.17
59274;BME280;45044;41.572;24.730;2023-05-22T08:36:31;91117.53;;;17.93;87.50
59274;BME280;45044;41.572;24.730;2023-05-22T08:39:01;91107.63;;;17.68;77.42
59274;BME280;45044;41.572;24.730;2023-05-22T08:41:28;91113.53;;;18.15;84.77
59274;BME280;45044;41.572;24.730;2023-05-22T08:43:55;91115.66;;;18.82;80.83
59274;BME280;45044;41.572;24.730;2023-05-22T08:46:23;91125.50;;;19.07;72.50
59274;BME280;45044;41.572;24.730;2023-05-22T08:48:55;91112.44;;;18.51;68.70
59274;BME280;45044;41.572;24.730;2023-05-22T08:51:28;91130.97;;;18.29;69.04
59274;BME280;45044;41.572;24.730;2023-05-22T08:53:57;91122.16;;;18.19;71.96
59274;BME280;45044;41.572;24.730;2023-05-22T08:56:25;91122.66;;;18.14;67.89
59274;BME280;45044;41.572;24.730;2023-05-22T08:58:56;91117.97;;;17.92;74.23
59274;BME280;45044;41.572;24.730;2023-05-22T09:01:23;91118.38;;;18.03;71.27
59274;BME280;45044;41.572;24.730;2023-05-22T09:03:50;91115.81;;;18.13;73.56
59274;BME280;45044;41.572;24.730;2023-05-22T09:06:17;91118.66;;;17.79;72.64
59274;BME280;45044;41.572;24.730;2023-05-22T09:08:44;91119.72;;;17.69;68.31
59274;BME280;45044;41.572;24.730;2023-05-22T09:11:12;91127.19;;;17.31;70.15
59274;BME280;45044;41.572;24.730;2023-05-22T09:13:39;91130.59;;;17.45;78.05
59274;BME280;45044;41.572;24.730;2023-05-22T09:16:08;91123.16;;;17.40;74.96
59274;BME280;45044;41.572;24.730;2023-05-22T09:18:37;91129.59;;;17.55;74.27
59274;BME280;45044;41.572;24.730;2023-05-22T09:21:05;91123.44;;;17.58;76.25
59274;BME280;45044;41.572;24.730;2023-05-22T09:23:53;91142.09;;;17.42;71.39
59274;BME280;45044;41.572;24.730;2023-05-22T09:26:20;91122.94;;;17.90;73.12
59274;BME280;45044;41.572;24.730;2023-05-22T09:28:47;91120.84;;;18.50;77.42
59274;BME280;45044;41.572;24.730;2023-05-22T09:31:13;91114.00;;;18.62;77.43
59274;BME280;45044;41.572;24.730;2023-05-22T09:33:43;91113.75;;;18.82;68.65
59274;BME280;45044;41.572;24.730;2023-05-22T09:36:09;91109.19;;;18.83;66.20
59274;BME280;45044;41.572;24.730;2023-05-22T09:38:38;91106.97;;;19.03;64.15
59274;BME280;45044;41.572;24.730;2023-05-22T09:41:05;91108.66;;;19.68;67.29
59274;BME280;45044;41.572;24.730;2023-05-22T09:43:32;91094.16;;;19.24;64.82
59274;BME280;45044;41.572;24.730;2023-05-22T09:46:02;91110.63;;;19.32;59.73
59274;BME280;45044;41.572;24.730;2023-05-22T09:48:35;91114.59;;;19.27;60.46
59274;BME280;45044;41.572;24.730;2023-05-22T09:51:03;91108.03;;;19.64;59.82
59274;BME280;45044;41.572;24.730;2023-05-22T09:53:32;91110.88;;;20.02;61.94
59274;BME280;45044;41.572;24.730;2023-05-22T09:55:59;91116.50;;;20.04;63.06
59274;BME280;45044;41.572;24.730;2023-05-22T09:58:30;91117.47;;;20.19;63.19
59274;BME280;45044;41.572;24.730;2023-05-22T10:00:59;91113.78;;;19.40;63.19
59274;BME280;45044;41.572;24.730;2023-05-22T10:03:27;91112.00;;;19.01;63.34
59274;BME280;45044;41.572;24.730;2023-05-22T10:05:54;91118.72;;;18.93;67.81
59274;BME280;45044;41.572;24.730;2023-05-22T10:10:50;91113.13;;;18.78;63.72
59274;BME280;45044;41.572;24.730;2023-05-22T10:13:18;91119.97;;;19.01;64.78
59274;BME280;45044;41.572;24.730;2023-05-22T10:15:47;91120.41;;;19.13;66.71
59274;BME280;45044;41.572;24.730;2023-05-22T10:18:16;91110.69;;;19.19;64.91
59274;BME280;45044;41.572;24.730;2023-05-22T10:20:43;91107.22;;;18.96;64.17
59274;BME280;45044;41.572;24.730;2023-05-22T10:23:13;91103.91;;;18.57;71.71
59274;BME280;45044;41.572;24.730;2023-05-22T10:25:43;91106.28;;;18.90;66.52
59274;BME280;45044;41.572;24.730;2023-05-22T10:28:10;91098.56;;;19.05;70.50
59274;BME280;45044;41.572;24.730;2023-05-22T10:30:48;91105.91;;;19.14;72.34
59274;BME280;45044;41.572;24.730;2023-05-22T10:33:20;91110.13;;;18.76;64.69
59274;BME280;45044;41.572;24.730;2023-05-22T10:40:57;91089.03;;;19.62;61.40
59274;BME280;45044;41.572;24.730;2023-05-22T10:43:28;91089.34;;;19.64;63.68
59274;BME280;45044;41.572;24.730;2023-05-22T10:46:03;91081.75;;;19.53;62.83
59274;BME280;45044;41.572;24.730;2023-05-22T10:48:43;91069.31;;;19.59;62.91
59274;BME280;45044;41.572;24.730;2023-05-22T10:51:20;91081.19;;;19.36;59.56
59274;BME280;45044;41.572;24.730;2023-05-22T10:53:51;91074.78;;;19.11;62.75
59274;BME280;45044;41.572;24.730;2023-05-22T10:56:18;91090.72;;;18.40;59.57
59274;BME280;45044;41.572;24.730;2023-05-22T10:58:57;91081.22;;;19.00;63.60
59274;BME280;45044;41.572;24.730;2023-05-22T11:01:28;91079.00;;;19.21;65.10
59274;BME280;45044;41.572;24.730;2023-05-22T11:07:01;91083.63;;;19.08;60.15
59274;BME280;45044;41.572;24.730;2023-05-22T11:09:30;91068.53;;;18.69;63.14
59274;BME280;45044;41.572;24.730;2023-05-22T11:12:23;91070.72;;;19.42;68.62
59274;BME280;45044;41.572;24.730;2023-05-22T11:14:53;91084.06;;;19.73;63.24
59274;BME280;45044;41.572;24.730;2023-05-22T11:17:26;91068.78;;;19.65;61.61
59274;BME280;45044;41.572;24.730;2023-05-22T11:20:19;91067.19;;;19.77;60.34
59274;BME280;45044;41.572;24.730;2023-05-22T11:22:55;91061.97;;;20.05;60.55
59274;BME280;45044;41.572;24.730;2023-05-22T11:25:23;91066.06;;;20.19;61.44
59274;BME280;45044;41.572;24.730;2023-05-22T11:27:52;91074.09;;;19.96;57.59
59274;BME280;45044;41.572;24.730;2023-05-22T11:30:23;91065.28;;;20.09;60.63
59274;BME280;45044;41.572;24.730;2023-05-22T11:32:51;91069.72;;;20.12;59.43
59274;BME280;45044;41.572;24.730;2023-05-22T11:35:19;91073.78;;;20.26;58.69
59274;BME280;45044;41.572;24.730;2023-05-22T11:37:47;91075.47;;;20.42;58.63
59274;BME280;45044;41.572;24.730;2023-05-22T11:40:19;91067.91;;;20.41;57.36
59274;BME280;45044;41.572;24.730;2023-05-22T11:42:47;91080.94;;;20.39;54.86
59274;BME280;45044;41.572;24.730;2023-05-22T11:45:13;91077.19;;;20.17;56.78
59274;BME280;45044;41.572;24.730;2023-05-22T11:47:41;91068.41;;;19.85;58.38
59274;BME280;45044;41.572;24.730;2023-05-22T11:50:10;91077.81;;;19.00;58.31
59274;BME280;45044;41.572;24.730;2023-05-22T11:52:40;91079.50;;;18.71;63.72
59274;BME280;45044;41.572;24.730;2023-05-22T11:55:09;91080.34;;;18.68;61.73
59274;BME280;45044;41.572;24.730;2023-05-22T11:57:37;91075.50;;;18.89;62.80
59274;BME280;45044;41.572;24.730;2023-05-22T12:00:05;91057.00;;;19.08;66.79
59274;BME280;45044;41.572;24.730;2023-05-22T12:02:34;91055.66;;;19.48;65.26
59274;BME280;45044;41.572;24.730;2023-05-22T12:05:01;91058.97;;;19.61;61.11
59274;BME280;45044;41.572;24.730;2023-05-22T12:07:28;91052.53;;;19.72;59.78
59274;BME280;45044;41.572;24.730;2023-05-22T12:09:56;91044.22;;;19.70;68.28
59274;BME280;45044;41.572;24.730;2023-05-22T12:12:24;91040.91;;;19.97;63.34
59274;BME280;45044;41.572;24.730;2023-05-22T12:14:51;91043.88;;;19.99;60.85
59274;BME280;45044;41.572;24.730;2023-05-22T12:17:18;91039.91;;;19.72;61.00
59274;BME280;45044;41.572;24.730;2023-05-22T12:19:46;91048.03;;;19.37;59.77
59274;BME280;45044;41.572;24.730;2023-05-22T12:22:13;91037.97;;;18.96;61.81
59274;BME280;45044;41.572;24.730;2023-05-22T12:24:41;91035.94;;;19.00;71.70
59274;BME280;45044;41.572;24.730;2023-05-22T12:27:12;91036.84;;;18.84;64.95
59274;BME280;45044;41.572;24.730;2023-05-22T12:29:40;91039.59;;;18.58;72.77
59274;BME280;45044;41.572;24.730;2023-05-22T12:32:11;91053.81;;;18.16;72.43
59274;BME280;45044;41.572;24.730;2023-05-22T12:34:44;91054.16;;;18.18;71.06
59274;BME280;45044;41.572;24.730;2023-05-22T12:37:21;91045.19;;;18.12;75.51
59274;BME280;45044;41.572;24.730;2023-05-22T12:39:55;91038.91;;;17.92;80.14
59274;BME280;45044;41.572;24.730;2023-05-22T12:42:23;91039.34;;;18.04;76.16
59274;BME280;45044;41.572;24.730;2023-05-22T12:44:55;91041.75;;;18.50;85.37
59274;BME280;45044;41.572;24.730;2023-05-22T12:47:23;91035.00;;;18.94;66.69
59274;BME280;45044;41.572;24.730;2023-05-22T12:49:52;91032.16;;;19.11;73.87
59274;BME280;45044;41.572;24.730;2023-05-22T12:52:19;91023.63;;;19.16;65.42
59274;BME280;45044;41.572;24.730;2023-05-22T12:54:46;91026.59;;;19.18;66.52
59274;BME280;45044;41.572;24.730;2023-05-22T12:57:12;91014.94;;;19.25;63.59
59274;BME280;45044;41.572;24.730;2023-05-22T12:59:39;91011.44;;;19.60;68.35
59274;BME280;45044;41.572;24.730;2023-05-22T13:02:06;91000.78;;;19.28;62.22
59274;BME280;45044;41.572;24.730;2023-05-22T13:04:34;90999.84;;;19.22;61.64
59274;BME280;45044;41.572;24.730;2023-05-22T13:07:01;91009.28;;;19.45;65.78
59274;BME280;45044;41.572;24.730;2023-05-22T13:09:28;91008.97;;;19.43;64.61
59274;BME280;45044;41.572;24.730;2023-05-22T13:11:55;91006.66;;;19.55;64.38